sensor_id;sensor_type;location;lat;lon;timestamp;pressure;altitude;pressure_sealevel;temperature;humidity
46199;BME280;31928;52.104;10.030;2023-02-15T00:01:33;101957.13;;;9.14;55.21
46199;BME280;31928;52.104;10.030;2023-02-15T00:03:59;101958.97;;;9.13;55.12
46199;BME280;31928;52.104;10.030;2023-02-15T00:06:26;101956.13;;;9.15;54.95
46199;BME280;31928;52.104;10.030;2023-02-15T00:08:54;101955.31;;;9.14;55.52
46199;BME280;31928;52.104;10.030;2023-02-15T00:11:21;101953.78;;;9.12;55.44
46199;BME280;31928;52.104;10.030;2023-02-15T00:14:07;101949.44;;;9.11;55.61
46199;BME280;31928;52.104;10.030;2023-02-15T00:16:35;101944.25;;;9.09;55.81
46199;BME280;31928;52.104;10.030;2023-02-15T00:19:02;101943.41;;;9.09;55.92
46199;BME280;31928;52.104;10.030;2023-02-15T00:21:30;101942.41;;;9.10;55.77
46199;BME280;31928;52.104;10.030;2023-02-15T00:23:58;101946.06;;;9.09;55.65
46199;BME280;31928;52.104;10.030;2023-02-15T00:26:25;101939.91;;;9.08;55.41
46199;BME280;31928;52.104;10.030;2023-02-15T00:28:52;101946.94;;;9.09;55.19
46199;BME280;31928;52.104;10.030;2023-02-15T00:31:19;101938.72;;;9.11;55.38
46199;BME280;31928;52.104;10.030;2023-02-15T00:33:45;101951.28;;;9.10;55.27
46199;BME280;31928;52.104;10.030;2023-02-15T00:36:12;101948.28;;;9.37;53.80
46199;BME280;31928;52.104;10.030;2023-02-15T00:38:39;101936.56;;;9.14;54.87
46199;BME280;31928;52.104;10.030;2023-02-15T00:41:07;101938.38;;;9.14;55.35
46199;BME280;31928;52.104;10.030;2023-02-15T00:43:34;101929.72;;;9.12;54.81
46199;BME280;31928;52.104;10.030;2023-02-15T00:46:03;101942.41;;;9.10;55.41
46199;BME280;31928;52.104;10.030;2023-02-15T00:48:30;101933.38;;;9.11;55.13
46199;BME280;31928;52.104;10.030;2023-02-15T00:50:58;101921.66;;;9.36;53.80
46199;BME280;31928;52.104;10.030;2023-02-15T00:53:26;101920.34;;;9.16;54.56
46199;BME280;31928;52.104;10.030;2023-02-15T00:55:53;101922.69;;;9.11;54.41
46199;BME280;31928;52.104;10.030;2023-02-15T00:58:20;101926.34;;;9.10;54.53
46199;BME280;31928;52.104;10.030;2023-02-15T01:00:47;101922.53;;;9.36;53.21
46199;BME280;31928;52.104;10.030;2023-02-15T01:03:15;101911.63;;;9.14;54.54
46199;BME280;31928;52.104;10.030;2023-02-15T01:05:42;101913.97;;;9.09;54.50
46199;BME280;31928;52.104;10.030;2023-02-15T01:08:08;101921.03;;;9.34;53.02
46199;BME280;31928;52.104;10.030;2023-02-15T01:10:35;101917.50;;;9.09;54.05
46199;BME280;31928;52.104;10.030;2023-02-15T01:13:02;101917.97;;;9.05;54.20
46199;BME280;31928;52.104;10.030;2023-02-15T01:15:28;101920.00;;;9.03;54.41
46199;BME280;31928;52.104;10.030;2023-02-15T01:17:55;101915.81;;;9.00;54.23
46199;BME280;31928;52.104;10.030;2023-02-15T01:20:25;101920.00;;;9.03;54.04
46199;BME280;31928;52.104;10.030;2023-02-15T01:22:53;101920.66;;;8.97;54.14
46199;BME280;31928;52.104;10.030;2023-02-15T01:25:21;101912.78;;;8.96;54.21
46199;BME280;31928;52.104;10.030;2023-02-15T01:27:48;101909.44;;;8.94;54.51
46199;BME280;31928;52.104;10.030;2023-02-15T01:30:15;101900.59;;;8.93;54.43
46199;BME280;31928;52.104;10.030;2023-02-15T01:32:43;101906.94;;;8.92;54.56
46199;BME280;31928;52.104;10.030;2023-02-15T01:35:10;101900.91;;;8.90;54.43
46199;BME280;31928;52.104;10.030;2023-02-15T01:37:37;101902.75;;;8.90;54.47
46199;BME280;31928;52.104;10.030;2023-02-15T01:40:04;101909.66;;;9.16;52.92
46199;BME280;31928;52.104;10.030;2023-02-15T01:42:31;101913.97;;;8.93;53.86
46199;BME280;31928;52.104;10.030;2023-02-15T01:45:22;101901.91;;;8.89;53.89
46199;BME280;31928;52.104;10.030;2023-02-15T01:48:03;101910.28;;;8.94;53.89
46199;BME280;31928;52.104;10.030;2023-02-15T01:50:40;101906.91;;;8.84;54.20
46199;BME280;31928;52.104;10.030;2023-02-15T01:55:48;101889.88;;;8.77;54.38
46199;BME280;31928;52.104;10.030;2023-02-15T01:58:16;101885.81;;;8.65;54.65
46199;BME280;31928;52.104;10.030;2023-02-15T02:00:43;101884.63;;;8.60;54.71
46199;BME280;31928;52.104;10.030;2023-02-15T02:03:10;101873.59;;;8.55;54.81
46199;BME280;31928;52.104;10.030;2023-02-15T02:05:36;101882.16;;;8.82;53.46
46199;BME280;31928;52.104;10.030;2023-02-15T02:08:04;101880.78;;;8.54;54.58
46199;BME280;31928;52.104;10.030;2023-02-15T02:10:30;101885.53;;;8.76;53.04
46199;BME280;31928;52.104;10.030;2023-02-15T02:13:00;101882.94;;;8.51;54.55
46199;BME280;31928;52.104;10.030;2023-02-15T02:15:41;101874.94;;;8.51;54.42
46199;BME280;31928;52.104;10.030;2023-02-15T02:21:01;101869.06;;;8.47;54.52
46199;BME280;31928;52.104;10.030;2023-02-15T02:26:31;101864.69;;;8.38;54.78
46199;BME280;31928;52.104;10.030;2023-02-15T02:43:15;101857.38;;;8.40;54.06
46199;BME280;31928;52.104;10.030;2023-02-15T02:45:55;101849.50;;;8.39;54.40
46199;BME280;31928;52.104;10.030;2023-02-15T02:48:27;101840.97;;;8.36;54.68
46199;BME280;31928;52.104;10.030;2023-02-15T02:50:55;101846.81;;;8.31;54.74
46199;BME280;31928;52.104;10.030;2023-02-15T02:53:22;101836.97;;;8.32;54.59
46199;BME280;31928;52.104;10.030;2023-02-15T02:56:23;101840.16;;;8.43;54.02
46199;BME280;31928;52.104;10.030;2023-02-15T02:59:06;101831.97;;;8.37;54.34
46199;BME280;31928;52.104;10.030;2023-02-15T03:01:44;101828.94;;;8.32;54.67
46199;BME280;31928;52.104;10.030;2023-02-15T03:04:17;101829.28;;;8.29;54.65
46199;BME280;31928;52.104;10.030;2023-02-15T03:06:50;101834.94;;;8.26;54.75
46199;BME280;31928;52.104;10.030;2023-02-15T03:09:29;101833.13;;;8.26;54.32
46199;BME280;31928;52.104;10.030;2023-02-15T03:12:01;101838.44;;;8.18;54.71
46199;BME280;31928;52.104;10.030;2023-02-15T03:14:29;101826.25;;;8.16;54.74
46199;BME280;31928;52.104;10.030;2023-02-15T03:16:56;101816.59;;;8.38;53.55
46199;BME280;31928;52.104;10.030;2023-02-15T03:19:27;101821.56;;;8.18;54.13
46199;BME280;31928;52.104;10.030;2023-02-15T03:21:58;101820.69;;;8.09;54.83
46199;BME280;31928;52.104;10.030;2023-02-15T03:27:19;101820.50;;;8.03;54.68
46199;BME280;31928;52.104;10.030;2023-02-15T03:29:50;101825.31;;;7.99;54.82
46199;BME280;31928;52.104;10.030;2023-02-15T03:32:18;101816.13;;;7.94;54.78
46199;BME280;31928;52.104;10.030;2023-02-15T03:34:45;101813.56;;;7.92;54.68
46199;BME280;31928;52.104;10.030;2023-02-15T03:40:18;101810.44;;;7.97;54.28
46199;BME280;31928;52.104;10.030;2023-02-15T03:43:14;101801.09;;;7.93;54.58
46199;BME280;31928;52.104;10.030;2023-02-15T03:45:47;101797.88;;;7.89;54.72
46199;BME280;31928;52.104;10.030;2023-02-15T03:48:32;101806.06;;;7.88;54.49
46199;BME280;31928;52.104;10.030;2023-02-15T03:51:05;101793.69;;;7.87;54.44
46199;BME280;31928;52.104;10.030;2023-02-15T03:53:52;101792.34;;;7.83;54.25
46199;BME280;31928;52.104;10.030;2023-02-15T03:58:47;101807.56;;;7.82;54.45
46199;BME280;31928;52.104;10.030;2023-02-15T04:02:05;101802.06;;;7.92;54.25
46199;BME280;31928;52.104;10.030;2023-02-15T04:04:39;101806.56;;;7.83;54.53
46199;BME280;31928;52.104;10.030;2023-02-15T04:07:09;101804.19;;;7.80;54.04
46199;BME280;31928;52.104;10.030;2023-02-15T04:09:35;101803.38;;;7.80;54.02
46199;BME280;31928;52.104;10.030;2023-02-15T04:12:20;101801.69;;;7.79;54.05
46199;BME280;31928;52.104;10.030;2023-02-15T04:14:47;101805.03;;;7.81;53.97
46199;BME280;31928;52.104;10.030;2023-02-15T04:17:32;101801.69;;;7.79;53.85
46199;BME280;31928;52.104;10.030;2023-02-15T04:19:58;101793.69;;;7.79;53.81
46199;BME280;31928;52.104;10.030;2023-02-15T04:22:44;101794.50;;;7.79;53.53
46199;BME280;31928;52.104;10.030;2023-02-15T04:25:29;101796.34;;;7.79;53.58
46199;BME280;31928;52.104;10.030;2023-02-15T04:27:56;101800.69;;;7.80;53.60
46199;BME280;31928;52.104;10.030;2023-02-15T04:30:24;101792.69;;;7.80;53.38
46199;BME280;31928;52.104;10.030;2023-02-15T04:32:51;101784.00;;;7.78;53.37
46199;BME280;31928;52.104;10.030;2023-02-15T04:35:17;101791.00;;;7.79;53.30
46199;BME280;31928;52.104;10.030;2023-02-15T04:37:44;101786.00;;;7.76;53.62
46199;BME280;31928;52.104;10.030;2023-02-15T04:40:13;101786.00;;;7.76;53.56
46199;BME280;31928;52.104;10.030;2023-02-15T04:42:39;101780.97;;;7.73;53.61
46199;BME280;31928;52.104;10.030;2023-02-15T04:45:06;101779.31;;;7.72;53.41
46199;BME280;31928;52.104;10.030;2023-02-15T04:47:33;101775.94;;;7.70;53.34
46199;BME280;31928;52.104;10.030;2023-02-15T04:50:00;101776.06;;;7.94;52.69
46199;BME280;31928;52.104;10.030;2023-02-15T04:52:26;101774.97;;;7.71;53.35
46199;BME280;31928;52.104;10.030;2023-02-15T04:54:53;101765.59;;;7.67;53.27
46199;BME280;31928;52.104;10.030;2023-02-15T04:57:19;101771.25;;;7.64;53.00
46199;BME280;31928;52.104;10.030;2023-02-15T04:59:46;101763.56;;;7.61;53.32
46199;BME280;31928;52.104;10.030;2023-02-15T05:02:12;101762.91;;;7.59;53.55
46199;BME280;31928;52.104;10.030;2023-02-15T05:04:39;101770.38;;;7.56;53.56
46199;BME280;31928;52.104;10.030;2023-02-15T05:07:05;101768.88;;;7.53;53.45
46199;BME280;31928;52.104;10.030;2023-02-15T05:09:32;101773.53;;;7.51;53.59
46199;BME280;31928;52.104;10.030;2023-02-15T05:11:58;101760.50;;;7.48;53.46
46199;BME280;31928;52.104;10.030;2023-02-15T05:14:25;101767.00;;;7.46;53.47
46199;BME280;31928;52.104;10.030;2023-02-15T05:16:51;101765.19;;;7.46;58.79
46199;BME280;31928;52.104;10.030;2023-02-15T05:19:20;101764.34;;;7.54;62.90
46199;BME280;31928;52.104;10.030;2023-02-15T05:21:46;101762.97;;;7.75;65.02
46199;BME280;31928;52.104;10.030;2023-02-15T05:24:13;101761.72;;;8.03;66.75
46199;BME280;31928;52.104;10.030;2023-02-15T05:26:58;101762.16;;;8.39;68.08
46199;BME280;31928;52.104;10.030;2023-02-15T05:29:43;101748.47;;;8.74;68.63
46199;BME280;31928;52.104;10.030;2023-02-15T05:32:12;101762.50;;;9.08;68.68
46199;BME280;31928;52.104;10.030;2023-02-15T05:34:39;101757.78;;;9.34;65.96
46199;BME280;31928;52.104;10.030;2023-02-15T05:37:06;101751.69;;;9.56;57.35
46199;BME280;31928;52.104;10.030;2023-02-15T05:39:33;101765.66;;;9.73;54.29
46199;BME280;31928;52.104;10.030;2023-02-15T05:42:00;101754.56;;;9.84;52.12
46199;BME280;31928;52.104;10.030;2023-02-15T05:44:26;101765.94;;;9.86;50.95
46199;BME280;31928;52.104;10.030;2023-02-15T05:46:53;101763.94;;;9.80;50.20
46199;BME280;31928;52.104;10.030;2023-02-15T05:49:19;101750.28;;;9.67;50.13
46199;BME280;31928;52.104;10.030;2023-02-15T05:51:46;101754.34;;;9.56;49.83
46199;BME280;31928;52.104;10.030;2023-02-15T05:54:12;101757.06;;;9.40;49.73
46199;BME280;31928;52.104;10.030;2023-02-15T05:56:39;101762.47;;;9.24;49.97
46199;BME280;31928;52.104;10.030;2023-02-15T05:59:05;101765.00;;;9.09;49.76
46199;BME280;31928;52.104;10.030;2023-02-15T06:01:32;101758.84;;;8.93;49.86
46199;BME280;31928;52.104;10.030;2023-02-15T06:03:58;101766.72;;;8.79;49.99
46199;BME280;31928;52.104;10.030;2023-02-15T06:06:25;101759.53;;;8.63;50.52
46199;BME280;31928;52.104;10.030;2023-02-15T06:08:51;101766.16;;;8.51;50.39
46199;BME280;31928;52.104;10.030;2023-02-15T06:11:18;101761.50;;;8.38;50.52
46199;BME280;31928;52.104;10.030;2023-02-15T06:13:44;101756.81;;;8.24;50.54
46199;BME280;31928;52.104;10.030;2023-02-15T06:16:11;101753.75;;;8.11;51.15
46199;BME280;31928;52.104;10.030;2023-02-15T06:18:37;101756.69;;;8.00;51.05
46199;BME280;31928;52.104;10.030;2023-02-15T06:21:04;101755.16;;;7.89;51.44
46199;BME280;31928;52.104;10.030;2023-02-15T06:23:30;101758.97;;;7.79;51.47
46199;BME280;31928;52.104;10.030;2023-02-15T06:25:57;101755.41;;;7.71;51.42
46199;BME280;31928;52.104;10.030;2023-02-15T06:28:23;101755.91;;;7.58;51.95
46199;BME280;31928;52.104;10.030;2023-02-15T06:30:51;101751.34;;;7.51;52.00
46199;BME280;31928;52.104;10.030;2023-02-15T06:33:18;101759.47;;;7.41;52.09
46199;BME280;31928;52.104;10.030;2023-02-15T06:35:45;101754.78;;;7.35;52.28
46199;BME280;31928;52.104;10.030;2023-02-15T06:38:12;101752.06;;;7.27;52.11
46199;BME280;31928;52.104;10.030;2023-02-15T06:40:39;101755.19;;;7.23;52.42
46199;BME280;31928;52.104;10.030;2023-02-15T06:43:05;101751.34;;;7.17;52.62
46199;BME280;31928;52.104;10.030;2023-02-15T06:45:32;101753.63;;;7.13;52.39
46199;BME280;31928;52.104;10.030;2023-02-15T06:47:58;101750.59;;;7.08;52.57
46199;BME280;31928;52.104;10.030;2023-02-15T06:50:25;101749.06;;;7.05;53.03
46199;BME280;31928;52.104;10.030;2023-02-15T06:52:56;101750.59;;;7.08;53.07
46199;BME280;31928;52.104;10.030;2023-02-15T06:55:23;101747.88;;;7.00;53.00
46199;BME280;31928;52.104;10.030;2023-02-15T06:57:49;101738.06;;;7.00;53.22
46199;BME280;31928;52.104;10.030;2023-02-15T07:00:16;101744.34;;;7.24;52.50
46199;BME280;31928;52.104;10.030;2023-02-15T07:02:44;101738.56;;;7.04;53.08
46199;BME280;31928;52.104;10.030;2023-02-15T07:05:10;101736.22;;;7.01;53.36
46199;BME280;31928;52.104;10.030;2023-02-15T07:07:37;101737.91;;;7.02;53.29
46199;BME280;31928;52.104;10.030;2023-02-15T07:10:04;101737.06;;;7.01;53.28
46199;BME280;31928;52.104;10.030;2023-02-15T07:12:30;101732.56;;;7.02;53.43
46199;BME280;31928;52.104;10.030;2023-02-15T07:15:13;101725.25;;;7.04;53.49
46199;BME280;31928;52.104;10.030;2023-02-15T07:17:40;101720.06;;;7.02;53.16
46199;BME280;31928;52.104;10.030;2023-02-15T07:20:15;101722.28;;;7.07;53.00
46199;BME280;31928;52.104;10.030;2023-02-15T07:22:43;101721.75;;;7.03;53.11
46199;BME280;31928;52.104;10.030;2023-02-15T07:25:10;101714.75;;;7.02;53.35
46199;BME280;31928;52.104;10.030;2023-02-15T07:27:38;101710.22;;;7.03;52.97
46199;BME280;31928;52.104;10.030;2023-02-15T07:30:06;101711.09;;;7.03;53.53
46199;BME280;31928;52.104;10.030;2023-02-15T07:32:33;101712.91;;;7.03;53.35
46199;BME280;31928;52.104;10.030;2023-02-15T07:35:00;101704.59;;;7.06;53.61
46199;BME280;31928;52.104;10.030;2023-02-15T07:37:27;101707.94;;;7.08;53.45
46199;BME280;31928;52.104;10.030;2023-02-15T07:39:54;101710.41;;;7.34;52.77
46199;BME280;31928;52.104;10.030;2023-02-15T07:42:20;101717.34;;;7.19;53.16
46199;BME280;31928;52.104;10.030;2023-02-15T07:44:48;101710.88;;;7.22;53.00
46199;BME280;31928;52.104;10.030;2023-02-15T07:47:15;101706.03;;;7.25;53.30
46199;BME280;31928;52.104;10.030;2023-02-15T07:49:41;101718.91;;;7.30;52.81
46199;BME280;31928;52.104;10.030;2023-02-15T07:52:08;101710.25;;;7.36;52.68
46199;BME280;31928;52.104;10.030;2023-02-15T07:54:35;101712.63;;;7.39;52.91
46199;BME280;31928;52.104;10.030;2023-02-15T07:57:04;101709.44;;;7.43;52.51
46199;BME280;31928;52.104;10.030;2023-02-15T07:59:30;101717.00;;;7.48;52.53
46199;BME280;31928;52.104;10.030;2023-02-15T08:01:57;101708.50;;;7.52;52.91
46199;BME280;31928;52.104;10.030;2023-02-15T08:04:24;101720.22;;;7.59;52.24
46199;BME280;31928;52.104;10.030;2023-02-15T08:06:52;101711.38;;;7.67;52.48
46199;BME280;31928;52.104;10.030;2023-02-15T08:09:20;101720.91;;;7.69;52.25
46199;BME280;31928;52.104;10.030;2023-02-15T08:11:47;101729.25;;;7.74;51.92
46199;BME280;31928;52.104;10.030;2023-02-15T08:16:41;101729.28;;;7.82;51.65
46199;BME280;31928;52.104;10.030;2023-02-15T08:19:09;101726.59;;;7.82;51.91
46199;BME280;31928;52.104;10.030;2023-02-15T08:21:38;101720.63;;;7.88;52.34
46199;BME280;31928;52.104;10.030;2023-02-15T08:24:06;101722.97;;;7.91;52.11
46199;BME280;31928;52.104;10.030;2023-02-15T08:26:34;101730.34;;;7.97;52.50
46199;BME280;31928;52.104;10.030;2023-02-15T08:29:01;101726.34;;;8.01;52.71
46199;BME280;31928;52.104;10.030;2023-02-15T08:31:28;101718.03;;;8.12;52.07
46199;BME280;31928;52.104;10.030;2023-02-15T08:33:56;101721.72;;;8.19;51.81
46199;BME280;31928;52.104;10.030;2023-02-15T08:36:27;101712.72;;;8.28;51.24
46199;BME280;31928;52.104;10.030;2023-02-15T08:39:00;101715.75;;;8.33;51.30
46199;BME280;31928;52.104;10.030;2023-02-15T08:41:30;101716.72;;;8.39;51.16
46199;BME280;31928;52.104;10.030;2023-02-15T08:43:59;101709.88;;;8.45;50.89
46199;BME280;31928;52.104;10.030;2023-02-15T08:46:28;101700.38;;;8.50;50.97
46199;BME280;31928;52.104;10.030;2023-02-15T08:48:56;101703.41;;;8.55;50.82
46199;BME280;31928;52.104;10.030;2023-02-15T08:51:24;101697.34;;;8.61;50.79
46199;BME280;31928;52.104;10.030;2023-02-15T08:53:54;101702.88;;;8.68;50.98
46199;BME280;31928;52.104;10.030;2023-02-15T08:56:23;101689.66;;;8.74;50.87
46199;BME280;31928;52.104;10.030;2023-02-15T08:58:50;101692.16;;;8.76;50.65
46199;BME280;31928;52.104;10.030;2023-02-15T09:01:20;101685.31;;;8.81;50.18
46199;BME280;31928;52.104;10.030;2023-02-15T09:03:49;101691.50;;;8.82;50.08
46199;BME280;31928;52.104;10.030;2023-02-15T09:06:17;101685.31;;;8.81;50.12
46199;BME280;31928;52.104;10.030;2023-02-15T09:08:43;101679.91;;;9.05;50.77
46199;BME280;31928;52.104;10.030;2023-02-15T09:11:13;101667.75;;;8.87;50.32
46199;BME280;31928;52.104;10.030;2023-02-15T09:13:39;101661.09;;;8.83;50.31
46199;BME280;31928;52.104;10.030;2023-02-15T09:16:08;101668.56;;;8.87;50.43
46199;BME280;31928;52.104;10.030;2023-02-15T09:18:37;101678.78;;;8.92;50.61
46199;BME280;31928;52.104;10.030;2023-02-15T09:21:12;101672.59;;;8.99;50.79
46199;BME280;31928;52.104;10.030;2023-02-15T09:23:43;101676.41;;;9.04;50.08
46199;BME280;31928;52.104;10.030;2023-02-15T09:26:12;101679.88;;;9.13;49.99
46199;BME280;31928;52.104;10.030;2023-02-15T09:28:40;101677.19;;;9.21;49.71
46199;BME280;31928;52.104;10.030;2023-02-15T09:31:10;101673.22;;;9.47;50.60
46199;BME280;31928;52.104;10.030;2023-02-15T09:33:38;101677.13;;;9.37;48.65
46199;BME280;31928;52.104;10.030;2023-02-15T09:36:06;101674.09;;;9.40;47.68
46199;BME280;31928;52.104;10.030;2023-02-15T09:38:39;101662.75;;;9.38;47.28
46199;BME280;31928;52.104;10.030;2023-02-15T09:41:22;101663.19;;;9.49;48.06
46199;BME280;31928;52.104;10.030;2023-02-15T09:58:05;101668.59;;;9.71;49.15
46199;BME280;31928;52.104;10.030;2023-02-15T10:00:58;101663.53;;;9.76;48.86
46199;BME280;31928;52.104;10.030;2023-02-15T21:40:35;101416.78;;;9.06;49.42
46199;BME280;31928;52.104;10.030;2023-02-15T21:43:01;101422.00;;;8.99;49.46
46199;BME280;31928;52.104;10.030;2023-02-15T21:45:46;101410.81;;;8.96;49.66
46199;BME280;31928;52.104;10.030;2023-02-15T21:48:51;101420.19;;;8.92;49.88
46199;BME280;31928;52.104;10.030;2023-02-15T21:51:18;101420.19;;;8.92;49.91
46199;BME280;31928;52.104;10.030;2023-02-15T21:54:03;101419.56;;;8.90;49.67
46199;BME280;31928;52.104;10.030;2023-02-15T21:56:30;101428.94;;;8.86;49.97
46199;BME280;31928;52.104;10.030;2023-02-15T21:58:56;101425.25;;;8.87;50.21
46199;BME280;31928;52.104;10.030;2023-02-15T22:01:25;101422.56;;;8.87;50.26
46199;BME280;31928;52.104;10.030;2023-02-15T22:03:54;101419.25;;;8.85;50.15
46199;BME280;31928;52.104;10.030;2023-02-15T22:06:21;101414.59;;;8.79;50.12
46199;BME280;31928;52.104;10.030;2023-02-15T22:08:48;101409.25;;;8.79;50.13
46199;BME280;31928;52.104;10.030;2023-02-15T22:11:15;101408.06;;;9.04;49.41
46199;BME280;31928;52.104;10.030;2023-02-15T22:13:43;101411.75;;;8.81;49.99
46199;BME280;31928;52.104;10.030;2023-02-15T22:16:18;101412.59;;;8.81;50.19
46199;BME280;31928;52.104;10.030;2023-02-15T22:18:45;101426.16;;;8.72;50.39
46199;BME280;31928;52.104;10.030;2023-02-15T22:21:12;101423.66;;;8.70;50.48
46199;BME280;31928;52.104;10.030;2023-02-15T22:23:41;101425.69;;;8.68;50.41
46199;BME280;31928;52.104;10.030;2023-02-15T22:26:21;101428.00;;;8.71;50.33
46199;BME280;31928;52.104;10.030;2023-02-15T22:28:49;101420.03;;;8.63;50.37
46199;BME280;31928;52.104;10.030;2023-02-15T22:31:19;101423.34;;;8.65;50.40
46199;BME280;31928;52.104;10.030;2023-02-15T22:33:46;101441.59;;;8.62;50.20
46199;BME280;31928;52.104;10.030;2023-02-15T22:36:26;101434.41;;;8.62;50.49
46199;BME280;31928;52.104;10.030;2023-02-15T22:38:53;101434.28;;;8.56;50.70
46199;BME280;31928;52.104;10.030;2023-02-15T22:41:23;101434.47;;;8.54;50.57
46199;BME280;31928;52.104;10.030;2023-02-15T22:43:50;101430.47;;;8.50;50.83
46199;BME280;31928;52.104;10.030;2023-02-15T22:46:20;101436.13;;;8.47;50.78
46199;BME280;31928;52.104;10.030;2023-02-15T22:48:48;101423.94;;;8.45;50.51
46199;BME280;31928;52.104;10.030;2023-02-15T22:51:18;101422.81;;;8.39;51.04
46199;BME280;31928;52.104;10.030;2023-02-15T22:53:45;101410.81;;;8.36;51.14
46199;BME280;31928;52.104;10.030;2023-02-15T22:56:17;101410.81;;;8.36;50.90
46199;BME280;31928;52.104;10.030;2023-02-15T22:58:45;101417.69;;;8.30;51.21
46199;BME280;31928;52.104;10.030;2023-02-15T23:01:34;101419.50;;;8.38;50.55
46199;BME280;31928;52.104;10.030;2023-02-15T23:04:02;101402.53;;;8.23;51.08
46199;BME280;31928;52.104;10.030;2023-02-15T23:06:30;101425.91;;;8.21;51.05
46199;BME280;31928;52.104;10.030;2023-02-15T23:08:58;101411.22;;;8.17;51.52
46199;BME280;31928;52.104;10.030;2023-02-15T23:11:26;101422.56;;;8.11;51.59
46199;BME280;31928;52.104;10.030;2023-02-15T23:13:52;101426.03;;;8.35;50.15
46199;BME280;31928;52.104;10.030;2023-02-15T23:16:19;101427.06;;;8.10;51.38
46199;BME280;31928;52.104;10.030;2023-02-15T23:18:46;101421.25;;;8.07;51.48
46199;BME280;31928;52.104;10.030;2023-02-15T23:21:30;101413.56;;;8.12;51.03
46199;BME280;31928;52.104;10.030;2023-02-15T23:24:17;101407.22;;;8.05;51.31
46199;BME280;31928;52.104;10.030;2023-02-15T23:26:44;101411.91;;;7.95;51.67
46199;BME280;31928;52.104;10.030;2023-02-15T23:29:17;101408.25;;;7.96;51.99
46199;BME280;31928;52.104;10.030;2023-02-15T23:31:47;101418.41;;;7.92;51.72
46199;BME280;31928;52.104;10.030;2023-02-15T23:34:17;101409.75;;;7.90;51.91
46199;BME280;31928;52.104;10.030;2023-02-15T23:36:45;101408.28;;;7.88;52.10
46199;BME280;31928;52.104;10.030;2023-02-15T23:39:14;101406.59;;;7.87;52.28
46199;BME280;31928;52.104;10.030;2023-02-15T23:42:01;101405.28;;;7.83;52.12
46199;BME280;31928;52.104;10.030;2023-02-15T23:44:29;101412.97;;;7.78;52.19
46199;BME280;31928;52.104;10.030;2023-02-15T23:46:56;101414.97;;;7.76;52.42
46199;BME280;31928;52.104;10.030;2023-02-15T23:49:23;101426.66;;;7.75;52.33
46199;BME280;31928;52.104;10.030;2023-02-15T23:51:51;101418.94;;;7.96;51.23
46199;BME280;31928;52.104;10.030;2023-02-15T23:54:20;101411.28;;;7.77;51.84
46199;BME280;31928;52.104;10.030;2023-02-15T23:56:50;101417.31;;;7.71;52.33
46199;BME280;31928;52.104;10.030;2023-02-15T23:59:20;101407.13;;;7.67;52.38
